createdAt,value
2018-10-19T00:01:02.023Z,94.50
2018-10-19T00:03:30.782Z,94.50
2018-10-19T00:05:59.522Z,94.50
2018-10-19T00:08:28.250Z,94.50
2018-10-19T00:10:57.029Z,94.60
2018-10-19T00:13:25.768Z,94.60
2018-10-19T00:15:54.570Z,94.50
2018-10-19T00:18:23.598Z,94.40
2018-10-19T00:20:53.160Z,94.30
2018-10-19T00:23:21.874Z,94.40
2018-10-19T00:25:50.697Z,94.40
2018-10-19T00:28:19.429Z,94.30
2018-10-19T00:30:48.274Z,94.50
2018-10-19T00:33:17.108Z,94.50
2018-10-19T00:35:45.810Z,94.60
2018-10-19T00:38:14.566Z,94.70
2018-10-19T00:40:43.331Z,94.80
2018-10-19T00:43:12.066Z,94.80
2018-10-19T00:45:47.466Z,94.80
2018-10-19T00:48:20.127Z,94.90
2018-10-19T00:50:48.873Z,95.00
2018-10-19T00:53:17.647Z,95.20
2018-10-19T00:55:46.386Z,95.20
2018-10-19T00:58:15.130Z,95.30
2018-10-19T01:00:43.861Z,95.30
2018-10-19T01:03:12.656Z,95.40
2018-10-19T01:05:41.660Z,95.50
2018-10-19T01:08:10.876Z,95.50
2018-10-19T01:10:39.678Z,95.50
2018-10-19T01:13:08.461Z,95.50
2018-10-19T01:15:37.201Z,95.50
2018-10-19T01:18:05.929Z,95.50
2018-10-19T01:20:34.693Z,95.60
2018-10-19T01:23:04.479Z,95.60
2018-10-19T01:25:33.178Z,95.80
2018-10-19T01:28:01.922Z,96.00
2018-10-19T01:30:30.686Z,96.00
2018-10-19T01:32:59.455Z,96.00
2018-10-19T01:35:28.176Z,96.00
2018-10-19T01:37:57.002Z,96.00
2018-10-19T01:40:25.959Z,96.10
2018-10-19T01:42:54.678Z,96.10
2018-10-19T01:45:23.428Z,96.10
2018-10-19T01:47:52.198Z,96.10
2018-10-19T01:50:20.934Z,96.10
2018-10-19T01:52:49.683Z,96.20
2018-10-19T01:55:18.458Z,96.00
2018-10-19T01:57:47.215Z,96.10
2018-10-19T02:00:15.989Z,96.00
2018-10-19T02:02:44.717Z,96.00
2018-10-19T02:05:13.491Z,95.90
2018-10-19T02:07:42.206Z,95.80
2018-10-19T02:10:10.920Z,95.80
2018-10-19T02:12:39.637Z,95.90
2018-10-19T02:15:08.523Z,96.00
2018-10-19T02:17:37.203Z,96.00
2018-10-19T02:20:06.005Z,96.10
2018-10-19T02:22:34.790Z,96.20
2018-10-19T02:25:03.581Z,96.30
2018-10-19T02:27:32.368Z,96.50
2018-10-19T02:30:01.120Z,96.50
2018-10-19T02:32:29.857Z,96.60
2018-10-19T02:34:58.638Z,96.70
2018-10-19T02:37:27.338Z,96.70
2018-10-19T02:39:56.074Z,96.70
2018-10-19T02:42:24.808Z,96.80
2018-10-19T02:44:54.258Z,96.80
2018-10-19T02:47:22.934Z,96.90
2018-10-19T02:49:52.357Z,96.90
2018-10-19T02:52:21.101Z,96.90
2018-10-19T02:54:49.879Z,96.90
2018-10-19T02:57:18.726Z,96.90
2018-10-19T02:59:47.374Z,97.00
2018-10-19T03:02:16.130Z,97.00
2018-10-19T03:04:44.919Z,97.00
2018-10-19T03:07:13.650Z,97.10
2018-10-19T03:09:42.667Z,97.10
2018-10-19T03:12:11.455Z,97.10
2018-10-19T03:14:40.182Z,97.20
2018-10-19T03:17:08.985Z,97.20
2018-10-19T03:19:37.673Z,97.20
2018-10-19T03:22:06.416Z,97.20
2018-10-19T03:24:35.133Z,97.20
2018-10-19T03:27:04.608Z,97.30
2018-10-19T03:29:33.342Z,97.40
2018-10-19T03:32:02.115Z,97.30
2018-10-19T03:34:32.443Z,97.30
2018-10-19T03:37:01.203Z,97.30
2018-10-19T03:39:29.914Z,97.50
2018-10-19T03:41:58.712Z,97.40
2018-10-19T03:44:27.493Z,97.40
2018-10-19T03:46:56.250Z,97.40
2018-10-19T03:49:24.998Z,97.30
2018-10-19T03:51:53.756Z,97.40
2018-10-19T03:54:22.499Z,97.80
2018-10-19T03:56:51.235Z,97.40
2018-10-19T03:59:20.106Z,97.40
2018-10-19T04:01:48.778Z,97.40
2018-10-19T04:04:17.542Z,97.40
2018-10-19T04:06:46.387Z,97.30
2018-10-19T04:09:15.139Z,97.20
2018-10-19T04:11:44.730Z,97.30
2018-10-19T04:14:20.067Z,97.20
2018-10-19T04:16:48.811Z,97.20
2018-10-19T04:19:17.550Z,97.20
2018-10-19T04:21:46.332Z,97.20
2018-10-19T04:24:15.099Z,97.30
2018-10-19T04:26:43.829Z,97.30
2018-10-19T04:29:12.722Z,97.30
2018-10-19T04:31:41.359Z,97.60
2018-10-19T04:34:10.154Z,97.30
2018-10-19T04:36:38.918Z,97.40
2018-10-19T04:39:08.413Z,97.40
2018-10-19T04:41:37.300Z,97.40
2018-10-19T04:44:05.990Z,97.40
2018-10-19T04:46:34.736Z,97.40
2018-10-19T04:49:04.610Z,97.40
2018-10-19T04:51:33.902Z,97.50
2018-10-19T04:54:02.682Z,97.50
2018-10-19T04:56:31.459Z,97.50
2018-10-19T04:59:00.184Z,97.50
2018-10-19T05:01:28.946Z,97.60
2018-10-19T05:03:57.728Z,97.50
2018-10-19T05:06:26.541Z,97.50
2018-10-19T05:08:55.226Z,97.50
2018-10-19T05:11:23.964Z,97.60
2018-10-19T05:13:52.773Z,97.60
2018-10-19T05:16:21.458Z,97.60
2018-10-19T05:18:50.297Z,97.60
2018-10-19T05:21:18.990Z,97.70
2018-10-19T05:23:47.787Z,97.70
2018-10-19T05:26:16.551Z,97.60
2018-10-19T05:28:46.231Z,97.60
2018-10-19T05:31:14.988Z,97.70
2018-10-19T05:33:44.458Z,97.70
2018-10-19T05:36:13.186Z,97.60
2018-10-19T05:38:41.961Z,97.70
2018-10-19T05:41:10.741Z,97.70
2018-10-19T05:43:39.548Z,97.80
2018-10-19T05:46:08.238Z,97.80
2018-10-19T05:48:37.162Z,97.90
2018-10-19T05:51:05.920Z,97.90
2018-10-19T05:53:34.651Z,97.90
2018-10-19T06:00:56.760Z,97.80
2018-10-19T06:03:26.237Z,97.80
2018-10-19T06:05:55.079Z,97.80
2018-10-19T06:08:23.808Z,97.90
2018-10-19T06:10:52.633Z,98.00
2018-10-19T06:13:21.407Z,98.00
2018-10-19T06:15:50.162Z,98.00
2018-10-19T06:18:18.964Z,98.00
2018-10-19T06:20:47.727Z,98.00
2018-10-19T06:23:16.636Z,98.10
2018-10-19T06:25:45.408Z,98.10
2018-10-19T06:28:14.356Z,98.10
2018-10-19T06:30:43.122Z,98.10
2018-10-19T06:33:11.842Z,98.00
2018-10-19T06:35:40.603Z,98.00
2018-10-19T06:38:09.425Z,98.10
2018-10-19T06:40:38.170Z,98.20
2018-10-19T06:43:06.904Z,98.20
2018-10-19T06:45:35.679Z,98.30
2018-10-19T06:48:05.026Z,98.50
2018-10-19T06:50:33.786Z,98.40
2018-10-19T06:53:03.715Z,98.40
2018-10-19T06:55:32.338Z,98.30
2018-10-19T06:58:01.123Z,98.20
2018-10-19T07:00:29.950Z,98.20
2018-10-19T07:02:58.747Z,98.10
2018-10-19T07:05:27.503Z,98.00
2018-10-19T07:07:56.302Z,98.00
2018-10-19T07:10:25.007Z,98.10
2018-10-19T07:12:53.752Z,98.00
2018-10-19T07:15:22.532Z,98.00
2018-10-19T07:17:51.354Z,98.00
2018-10-19T07:20:20.129Z,97.90
2018-10-19T07:22:48.961Z,97.90
2018-10-19T07:25:17.735Z,97.90
2018-10-19T07:27:46.552Z,97.80
2018-10-19T07:30:15.326Z,97.80
2018-10-19T07:32:44.112Z,97.70
2018-10-19T07:35:12.935Z,97.60
2018-10-19T07:37:41.703Z,97.60
2018-10-19T07:40:10.464Z,97.60
2018-10-19T07:42:39.266Z,97.60
2018-10-19T07:45:08.095Z,97.50
2018-10-19T07:47:36.977Z,97.40
2018-10-19T07:50:06.503Z,97.40
2018-10-19T07:52:35.387Z,97.40
2018-10-19T07:55:04.691Z,97.30
2018-10-19T07:57:33.487Z,97.50
2018-10-19T08:00:02.314Z,97.30
2018-10-19T08:02:31.088Z,97.30
2018-10-19T08:04:59.905Z,97.30
2018-10-19T08:07:28.674Z,97.30
2018-10-19T08:09:57.523Z,97.30
2018-10-19T08:12:26.350Z,97.40
2018-10-19T08:14:55.124Z,97.30
2018-10-19T08:17:24.028Z,97.20
2018-10-19T08:19:52.778Z,97.20
2018-10-19T08:22:21.503Z,97.40
2018-10-19T08:24:51.475Z,97.70
2018-10-19T08:27:20.258Z,97.10
2018-10-19T08:29:49.043Z,97.00
2018-10-19T08:32:17.945Z,96.70
2018-10-19T08:34:46.786Z,96.60
2018-10-19T08:37:15.663Z,96.50
2018-10-19T08:39:44.375Z,95.70
2018-10-19T08:42:13.234Z,95.40
2018-10-19T08:44:42.025Z,95.10
2018-10-19T08:47:11.748Z,94.40
2018-10-19T08:49:40.390Z,94.00
2018-10-19T08:52:09.151Z,92.80
2018-10-19T08:54:38.041Z,92.50
2018-10-19T08:57:06.826Z,92.60
2018-10-19T08:59:35.602Z,92.40
2018-10-19T09:02:04.734Z,91.70
2018-10-19T09:04:33.516Z,91.60
2018-10-19T09:07:02.283Z,91.50
2018-10-19T09:09:31.038Z,91.10
2018-10-19T09:11:59.864Z,90.60
2018-10-19T09:14:40.006Z,90.80
2018-10-19T09:17:09.159Z,90.50
2018-10-19T09:19:37.866Z,90.60
2018-10-19T09:22:06.658Z,90.60
2018-10-19T09:24:35.422Z,90.40
2018-10-19T09:27:04.556Z,89.70
2018-10-19T09:29:33.429Z,88.90
2018-10-19T09:32:02.088Z,87.90
2018-10-19T09:34:30.921Z,87.70
2018-10-19T09:36:59.708Z,88.70
2018-10-19T09:39:28.557Z,88.40
2018-10-19T09:41:57.338Z,87.80
2018-10-19T09:44:26.135Z,87.70
2018-10-19T09:46:54.907Z,88.60
2018-10-19T09:49:23.739Z,88.90
2018-10-19T09:51:52.466Z,88.90
2018-10-19T09:54:21.335Z,89.70
2018-10-19T09:56:50.120Z,89.50
2018-10-19T09:59:18.886Z,89.80
2018-10-19T10:01:47.699Z,89.40
2018-10-19T10:04:16.513Z,88.80
2018-10-19T10:06:45.284Z,88.80
2018-10-19T10:09:15.386Z,88.20
2018-10-19T10:11:44.143Z,87.80
2018-10-19T10:14:12.996Z,88.10
2018-10-19T10:16:41.740Z,88.00
2018-10-19T10:19:10.531Z,88.30
2018-10-19T10:21:39.257Z,88.30
2018-10-19T10:24:08.231Z,88.60
2018-10-19T10:26:37.058Z,87.30
2018-10-19T10:29:06.344Z,88.50
2018-10-19T10:31:35.457Z,87.00
2018-10-19T10:34:04.662Z,87.30
2018-10-19T10:36:33.458Z,86.50
2018-10-19T10:39:02.459Z,85.40
2018-10-19T10:41:31.115Z,83.40
2018-10-19T10:43:59.871Z,83.90
2018-10-19T10:46:28.630Z,83.30
2018-10-19T10:48:57.429Z,83.40
2018-10-19T10:51:26.182Z,84.30
2018-10-19T10:53:55.000Z,84.10
2018-10-19T10:56:23.758Z,83.10
2018-10-19T10:58:52.563Z,83.20
2018-10-19T11:01:21.340Z,81.60
2018-10-19T11:03:50.134Z,80.20
2018-10-19T11:06:18.990Z,80.50
2018-10-19T11:08:47.734Z,79.80
2018-10-19T11:11:16.579Z,79.60
2018-10-19T11:13:52.068Z,80.00
2018-10-19T11:16:20.812Z,79.80
2018-10-19T11:18:49.547Z,77.70
2018-10-19T11:21:18.803Z,77.60
2018-10-19T11:23:47.547Z,77.60
2018-10-19T11:26:16.354Z,77.20
2018-10-19T11:28:45.143Z,77.10
2018-10-19T11:31:13.969Z,77.50
2018-10-19T11:33:42.702Z,76.00
2018-10-19T11:36:11.442Z,77.00
2018-10-19T11:38:41.130Z,76.50
2018-10-19T11:41:09.866Z,76.20
2018-10-19T11:43:38.623Z,76.40
2018-10-19T11:46:07.467Z,76.60
2018-10-19T11:48:36.179Z,75.60
2018-10-19T11:51:05.156Z,76.10
2018-10-19T11:53:33.919Z,75.60
2018-10-19T11:56:02.703Z,75.20
2018-10-19T11:58:31.504Z,75.10
2018-10-19T12:01:00.394Z,76.00
2018-10-19T12:03:29.071Z,75.50
2018-10-19T12:05:57.818Z,75.80
2018-10-19T12:08:27.159Z,76.50
2018-10-19T12:10:56.734Z,76.40
2018-10-19T12:13:25.527Z,77.00
2018-10-19T12:15:54.401Z,75.60
2018-10-19T12:18:23.203Z,76.30
2018-10-19T12:20:52.041Z,75.60
2018-10-19T12:23:20.803Z,76.90
2018-10-19T12:25:49.648Z,76.80
2018-10-19T12:28:18.430Z,77.70
2018-10-19T12:30:47.240Z,75.00
2018-10-19T12:33:16.206Z,74.90
2018-10-19T12:35:44.850Z,74.60
2018-10-19T12:38:13.659Z,75.40
2018-10-19T12:40:42.391Z,76.30
2018-10-19T12:43:11.181Z,77.00
2018-10-19T12:46:50.238Z,75.90
2018-10-19T12:49:20.347Z,75.70
2018-10-19T12:51:49.066Z,74.40
2018-10-19T12:54:18.714Z,73.00
2018-10-19T12:56:47.391Z,73.40
2018-10-19T12:59:16.220Z,72.10
2018-10-19T13:01:44.948Z,72.00
2018-10-19T13:04:13.721Z,71.70
2018-10-19T13:06:42.507Z,70.60
2018-10-19T13:09:12.558Z,71.20
2018-10-19T13:11:41.312Z,70.40
2018-10-19T13:14:10.084Z,71.90
2018-10-19T13:16:38.856Z,71.90
2018-10-19T13:19:07.683Z,71.30
2018-10-19T13:21:36.386Z,70.30
2018-10-19T13:24:05.504Z,70.70
2018-10-19T13:26:34.795Z,72.10
2018-10-19T13:29:05.039Z,71.60
2018-10-19T13:31:33.835Z,73.00
2018-10-19T13:34:02.886Z,74.20
2018-10-19T13:36:31.658Z,75.70
2018-10-19T13:39:00.453Z,75.70
2018-10-19T13:41:29.252Z,74.90
2018-10-19T13:43:58.009Z,74.60
2018-10-19T13:46:26.762Z,75.00
2018-10-19T13:48:55.523Z,75.20
2018-10-19T13:51:24.290Z,75.10
2018-10-19T13:53:53.023Z,75.30
2018-10-19T13:56:21.783Z,73.90
2018-10-19T13:58:50.579Z,74.00
2018-10-19T14:01:19.329Z,74.00
2018-10-19T14:03:48.147Z,74.20
2018-10-19T14:06:17.010Z,73.80
2018-10-19T14:08:45.779Z,74.20
2018-10-19T14:11:14.586Z,74.80
2018-10-19T14:13:43.276Z,74.70
2018-10-19T14:16:12.053Z,74.10
2018-10-19T14:18:40.805Z,73.50
2018-10-19T14:21:09.687Z,74.30
2018-10-19T14:23:38.363Z,73.90
2018-10-19T14:26:07.151Z,74.30
2018-10-19T14:28:35.945Z,72.40
2018-10-19T14:31:04.698Z,73.50
2018-10-19T14:33:33.692Z,72.20
2018-10-19T14:36:02.290Z,69.80
2018-10-19T14:38:31.104Z,70.70
2018-10-19T14:40:59.925Z,71.90
2018-10-19T14:43:28.618Z,70.70
2018-10-19T14:45:57.389Z,69.60
2018-10-19T14:48:26.146Z,69.50
2018-10-19T14:50:54.958Z,69.20
2018-10-19T14:53:23.687Z,68.40
2018-10-19T14:55:52.435Z,68.60
2018-10-19T14:58:21.184Z,69.80
2018-10-19T15:00:49.968Z,71.30
2018-10-19T15:03:18.760Z,70.60
2018-10-19T15:05:47.585Z,70.70
2018-10-19T15:08:16.376Z,71.30
2018-10-19T15:10:45.674Z,72.20
2018-10-19T15:13:14.223Z,72.20
2018-10-19T15:15:43.144Z,72.30
2018-10-19T15:18:11.887Z,72.40
2018-10-19T15:20:40.690Z,72.70
2018-10-19T15:23:09.507Z,73.40
2018-10-19T15:25:38.307Z,74.60
2018-10-19T15:28:07.188Z,75.10
2018-10-19T15:30:36.827Z,76.10
2018-10-19T15:33:05.943Z,76.40
2018-10-19T15:35:34.777Z,76.10
2018-10-19T15:38:03.532Z,76.20
2018-10-19T15:40:32.293Z,76.90
2018-10-19T15:43:01.139Z,77.70
2018-10-19T15:45:30.218Z,78.20
2018-10-19T15:47:59.147Z,79.00
2018-10-19T15:50:27.936Z,80.60
2018-10-19T15:52:56.794Z,80.60
2018-10-19T15:55:25.636Z,81.40
2018-10-19T15:57:54.495Z,82.10
2018-10-19T16:00:23.355Z,82.70
2018-10-19T16:02:52.108Z,83.40
2018-10-19T16:05:20.862Z,83.50
2018-10-19T16:07:49.666Z,83.70
2018-10-19T16:10:18.480Z,84.70
2018-10-19T16:12:47.210Z,84.00
2018-10-19T16:15:16.043Z,84.00
2018-10-19T16:17:45.274Z,84.30
2018-10-19T16:20:14.218Z,84.80
2018-10-19T16:22:43.030Z,84.90
2018-10-19T16:25:11.912Z,85.00
2018-10-19T16:27:40.721Z,83.90
2018-10-19T16:30:10.689Z,84.30
2018-10-19T16:32:40.018Z,84.30
2018-10-19T16:35:09.911Z,84.70
2018-10-19T16:37:38.810Z,84.60
2018-10-19T16:40:07.604Z,84.80
2018-10-19T16:42:36.724Z,85.20
2018-10-19T16:45:06.493Z,85.30
2018-10-19T16:47:35.206Z,85.70
2018-10-19T16:50:04.651Z,86.80
2018-10-19T16:52:33.471Z,86.60
2018-10-19T16:55:02.336Z,87.30
2018-10-19T16:57:31.483Z,87.00
2018-10-19T17:00:00.248Z,86.50
2018-10-19T17:02:29.326Z,87.30
2018-10-19T17:04:58.502Z,87.20
2018-10-19T17:07:27.151Z,87.10
2018-10-19T17:09:55.971Z,87.40
2018-10-19T17:12:24.786Z,87.50
2018-10-19T17:14:53.642Z,87.50
2018-10-19T17:17:22.546Z,88.20
2018-10-19T17:19:51.316Z,88.40
2018-10-19T17:22:20.081Z,88.90
2018-10-19T17:24:48.850Z,89.60
2018-10-19T17:27:17.724Z,89.90
2018-10-19T17:29:46.622Z,90.10
2018-10-19T17:32:15.419Z,90.20
2018-10-19T17:34:44.202Z,90.50
2018-10-19T17:37:13.084Z,90.80
2018-10-19T17:39:41.833Z,91.10
2018-10-19T17:42:10.693Z,91.30
2018-10-19T17:44:39.445Z,91.50
2018-10-19T17:47:09.538Z,91.60
2018-10-19T17:49:38.584Z,91.80
2018-10-19T17:52:07.592Z,92.10
2018-10-19T17:54:36.408Z,92.30
2018-10-19T17:57:05.367Z,92.50
2018-10-19T17:59:34.131Z,92.60
2018-10-19T18:02:02.895Z,92.90
2018-10-19T18:04:31.780Z,93.10
2018-10-19T18:07:00.506Z,93.10
2018-10-19T18:09:29.404Z,93.10
2018-10-19T18:11:58.146Z,93.30
2018-10-19T18:14:26.924Z,93.60
2018-10-19T18:16:55.718Z,93.70
2018-10-19T18:19:24.483Z,93.60
2018-10-19T18:21:53.677Z,93.50
2018-10-19T18:24:22.203Z,93.50
2018-10-19T18:26:50.970Z,93.40
2018-10-19T18:29:19.730Z,93.90
2018-10-19T18:31:48.480Z,94.10
2018-10-19T18:34:17.275Z,94.10
2018-10-19T18:36:46.010Z,94.00
2018-10-19T18:39:14.847Z,94.00
2018-10-19T18:41:44.279Z,93.90
2018-10-19T18:44:13.024Z,94.10
2018-10-19T18:46:41.802Z,94.20
2018-10-19T18:49:10.584Z,94.30
2018-10-19T18:51:39.337Z,94.20
2018-10-19T18:54:08.167Z,94.20
2018-10-19T18:56:36.950Z,94.20
2018-10-19T18:59:05.689Z,94.10
2018-10-19T19:01:34.467Z,94.10
2018-10-19T19:04:04.116Z,94.10
2018-10-19T19:06:32.910Z,94.10
2018-10-19T19:09:01.693Z,94.30
2018-10-19T19:11:30.494Z,94.40
2018-10-19T19:13:59.315Z,94.40
2018-10-19T19:16:30.068Z,94.50
2018-10-19T19:18:58.865Z,94.50
2018-10-19T19:21:27.638Z,94.50
2018-10-19T19:24:01.802Z,94.50
2018-10-19T19:26:30.574Z,94.50
2018-10-19T19:28:59.390Z,94.70
2018-10-19T19:31:28.230Z,94.60
2018-10-19T19:34:02.564Z,94.70
2018-10-19T19:36:31.284Z,94.90
2018-10-19T19:39:00.703Z,95.10
2018-10-19T19:41:34.712Z,95.30
2018-10-19T19:44:04.176Z,95.40
2018-10-19T19:46:32.896Z,95.50
2018-10-19T19:49:07.219Z,95.60
2018-10-19T19:51:35.883Z,96.00
2018-10-19T19:54:04.969Z,96.00
2018-10-19T19:56:33.711Z,95.90
2018-10-19T19:59:02.656Z,95.90
2018-10-19T20:01:31.323Z,95.90
2018-10-19T20:04:00.096Z,96.00
2018-10-19T20:06:28.834Z,96.00
2018-10-19T20:08:57.566Z,96.10
2018-10-19T20:11:26.786Z,96.20
2018-10-19T20:13:55.592Z,96.30
2018-10-19T20:16:24.338Z,96.40
2018-10-19T20:18:53.074Z,96.50
2018-10-19T20:21:21.839Z,96.60
2018-10-19T20:23:50.860Z,96.70
2018-10-19T20:26:19.674Z,96.70
2018-10-19T20:28:48.378Z,96.70
2018-10-19T20:31:17.186Z,96.70
2018-10-19T20:33:45.928Z,96.80
2018-10-19T20:36:14.803Z,96.90
2018-10-19T20:38:43.606Z,96.90
2018-10-19T20:41:12.555Z,96.90
2018-10-19T20:43:41.251Z,97.10
2018-10-19T20:46:10.014Z,97.00
2018-10-19T20:48:38.816Z,97.00
2018-10-19T20:51:07.642Z,97.00
2018-10-19T20:53:36.533Z,97.00
2018-10-19T20:56:05.423Z,97.20
2018-10-19T20:58:35.159Z,97.30
2018-10-19T21:01:04.622Z,97.20
2018-10-19T21:03:33.366Z,96.80
2018-10-19T21:06:02.147Z,96.80
2018-10-19T21:08:30.936Z,96.90
2018-10-19T21:10:59.663Z,97.00
2018-10-19T21:13:29.379Z,97.20
2018-10-19T21:15:58.122Z,97.20
2018-10-19T21:18:26.900Z,97.20
2018-10-19T21:20:55.662Z,97.10
2018-10-19T21:23:24.483Z,97.10
2018-10-19T21:25:53.265Z,97.10
2018-10-19T21:28:21.992Z,97.10
2018-10-19T21:30:50.726Z,96.90
2018-10-19T21:33:19.467Z,96.80
2018-10-19T21:35:48.201Z,96.90
2018-10-19T21:38:16.977Z,97.00
2018-10-19T21:40:45.783Z,97.10
2018-10-19T21:43:14.562Z,97.10
2018-10-19T21:45:43.315Z,97.30
2018-10-19T21:48:12.062Z,97.40
2018-10-19T21:50:40.818Z,97.40
2018-10-19T21:53:09.744Z,97.50
2018-10-19T21:55:38.367Z,97.50
2018-10-19T21:58:07.138Z,97.30
2018-10-19T22:00:35.945Z,97.20
2018-10-19T22:03:04.926Z,97.20
2018-10-19T22:05:33.688Z,97.30
2018-10-19T22:08:02.439Z,97.30
2018-10-19T22:10:31.207Z,97.30
2018-10-19T22:12:59.987Z,97.30
2018-10-19T22:15:28.687Z,97.30
2018-10-19T22:17:59.019Z,97.30
2018-10-19T22:20:27.759Z,97.40
2018-10-19T22:22:56.580Z,97.50
2018-10-19T22:25:25.270Z,97.60
2018-10-19T22:27:54.036Z,97.60
2018-10-19T22:30:22.794Z,97.60
2018-10-19T22:32:51.543Z,97.70
2018-10-19T22:35:20.276Z,97.70
2018-10-19T22:37:49.067Z,97.80
2018-10-19T22:40:17.815Z,97.90
2018-10-19T22:42:46.546Z,97.90
2018-10-19T22:45:15.346Z,97.90
2018-10-19T22:47:44.083Z,97.90
2018-10-19T22:50:12.861Z,97.80
2018-10-19T22:52:41.598Z,97.70
2018-10-19T22:55:10.393Z,97.80
2018-10-19T22:57:39.061Z,97.80
2018-10-19T23:00:08.160Z,97.80
2018-10-19T23:02:37.036Z,97.80
2018-10-19T23:05:05.910Z,98.00
2018-10-19T23:07:34.622Z,98.40
2018-10-19T23:10:05.391Z,98.00
2018-10-19T23:12:34.115Z,98.10
2018-10-19T23:15:02.845Z,98.20
2018-10-19T23:17:31.570Z,98.20
2018-10-19T23:20:00.313Z,98.30
2018-10-19T23:22:29.082Z,98.30
2018-10-19T23:24:57.863Z,98.30
2018-10-19T23:27:26.610Z,98.20
2018-10-19T23:29:55.342Z,98.00
2018-10-19T23:32:24.093Z,98.00
2018-10-19T23:34:52.895Z,98.10
2018-10-19T23:37:21.589Z,98.60
2018-10-19T23:39:50.409Z,98.10
2018-10-19T23:42:19.171Z,98.20
2018-10-19T23:44:47.903Z,98.30
2018-10-19T23:47:16.782Z,98.10
2018-10-19T23:49:45.682Z,98.10
2018-10-19T23:52:14.440Z,98.10
2018-10-19T23:54:43.218Z,98.00
2018-10-19T23:57:12.966Z,98.00
2018-10-19T23:59:41.797Z,98.00
